sensor_id;sensor_type;location;lat;lon;timestamp;temperature;humidity
19728;DHT22;10015;52.530;13.390;2023-05-18T00:00:05;12.30;99.90
19728;DHT22;10015;52.530;13.390;2023-05-18T00:02:37;12.30;99.90
19728;DHT22;10015;52.530;13.390;2023-05-18T00:05:03;12.40;99.90
19728;DHT22;10015;52.530;13.390;2023-05-18T00:07:29;12.30;99.90
19728;DHT22;10015;52.530;13.390;2023-05-18T00:09:59;12.30;99.90
19728;DHT22;10015;52.530;13.390;2023-05-18T00:12:26;12.30;99.90
19728;DHT22;10015;52.530;13.390;2023-05-18T00:14:52;12.30;99.90
19728;DHT22;10015;52.530;13.390;2023-05-18T00:17:18;12.30;99.90
19728;DHT22;10015;52.530;13.390;2023-05-18T00:19:45;12.40;99.90
19728;DHT22;10015;52.530;13.390;2023-05-18T00:22:11;12.40;99.90
19728;DHT22;10015;52.530;13.390;2023-05-18T00:24:46;12.40;99.90
19728;DHT22;10015;52.530;13.390;2023-05-18T00:27:12;12.40;99.90
19728;DHT22;10015;52.530;13.390;2023-05-18T00:29:39;12.30;99.90
19728;DHT22;10015;52.530;13.390;2023-05-18T00:32:07;12.30;99.90
19728;DHT22;10015;52.530;13.390;2023-05-18T00:34:33;12.40;99.90
19728;DHT22;10015;52.530;13.390;2023-05-18T00:36:59;12.30;99.90
19728;DHT22;10015;52.530;13.390;2023-05-18T00:39:25;12.20;99.90
19728;DHT22;10015;52.530;13.390;2023-05-18T00:41:51;12.30;99.90
19728;DHT22;10015;52.530;13.390;2023-05-18T00:44:17;12.20;99.90
19728;DHT22;10015;52.530;13.390;2023-05-18T00:46:43;12.10;99.90
19728;DHT22;10015;52.530;13.390;2023-05-18T00:49:10;12.10;99.90
19728;DHT22;10015;52.530;13.390;2023-05-18T00:51:37;12.10;99.90
19728;DHT22;10015;52.530;13.390;2023-05-18T00:54:03;12.00;99.90
19728;DHT22;10015;52.530;13.390;2023-05-18T00:56:31;11.90;99.90
19728;DHT22;10015;52.530;13.390;2023-05-18T00:59:01;11.90;99.90
19728;DHT22;10015;52.530;13.390;2023-05-18T01:01:29;11.80;99.90
19728;DHT22;10015;52.530;13.390;2023-05-18T01:03:57;11.80;99.90
19728;DHT22;10015;52.530;13.390;2023-05-18T01:06:27;11.70;99.90
19728;DHT22;10015;52.530;13.390;2023-05-18T01:09:02;11.70;99.90
19728;DHT22;10015;52.530;13.390;2023-05-18T01:11:39;11.70;99.90
19728;DHT22;10015;52.530;13.390;2023-05-18T01:20:06;11.40;99.90
19728;DHT22;10015;52.530;13.390;2023-05-18T01:27:59;11.50;99.90
19728;DHT22;10015;52.530;13.390;2023-05-18T01:30:33;11.60;99.90
19728;DHT22;10015;52.530;13.390;2023-05-18T01:33:09;11.60;99.90
19728;DHT22;10015;52.530;13.390;2023-05-18T01:35:36;11.60;99.90
19728;DHT22;10015;52.530;13.390;2023-05-18T01:38:03;11.60;99.90
19728;DHT22;10015;52.530;13.390;2023-05-18T01:43:33;11.60;99.90
19728;DHT22;10015;52.530;13.390;2023-05-18T01:46:05;11.60;99.90
19728;DHT22;10015;52.530;13.390;2023-05-18T01:48:34;11.70;99.90
19728;DHT22;10015;52.530;13.390;2023-05-18T01:51:02;11.70;99.90
19728;DHT22;10015;52.530;13.390;2023-05-18T01:53:45;11.70;99.90
19728;DHT22;10015;52.530;13.390;2023-05-18T01:56:13;11.70;99.90
19728;DHT22;10015;52.530;13.390;2023-05-18T01:58:40;11.60;99.90
19728;DHT22;10015;52.530;13.390;2023-05-18T02:01:07;11.50;99.90
19728;DHT22;10015;52.530;13.390;2023-05-18T02:03:32;11.40;99.90
19728;DHT22;10015;52.530;13.390;2023-05-18T02:05:58;11.30;99.90
19728;DHT22;10015;52.530;13.390;2023-05-18T02:08:25;11.40;99.90
19728;DHT22;10015;52.530;13.390;2023-05-18T02:10:51;11.40;99.90
19728;DHT22;10015;52.530;13.390;2023-05-18T02:13:17;11.50;99.90
19728;DHT22;10015;52.530;13.390;2023-05-18T02:15:42;11.50;99.90
19728;DHT22;10015;52.530;13.390;2023-05-18T02:18:11;11.60;99.90
19728;DHT22;10015;52.530;13.390;2023-05-18T02:20:37;11.60;99.90
19728;DHT22;10015;52.530;13.390;2023-05-18T02:23:03;11.60;99.90
19728;DHT22;10015;52.530;13.390;2023-05-18T02:25:29;11.60;99.90
19728;DHT22;10015;52.530;13.390;2023-05-18T02:27:56;11.60;99.90
19728;DHT22;10015;52.530;13.390;2023-05-18T02:30:22;11.60;99.90
19728;DHT22;10015;52.530;13.390;2023-05-18T02:32:50;11.50;99.90
19728;DHT22;10015;52.530;13.390;2023-05-18T02:35:16;11.40;99.90
19728;DHT22;10015;52.530;13.390;2023-05-18T02:37:43;11.40;99.90
19728;DHT22;10015;52.530;13.390;2023-05-18T02:40:12;11.30;99.90
19728;DHT22;10015;52.530;13.390;2023-05-18T02:42:39;11.40;99.90
19728;DHT22;10015;52.530;13.390;2023-05-18T02:45:05;11.50;99.90
19728;DHT22;10015;52.530;13.390;2023-05-18T02:47:33;11.40;99.90
19728;DHT22;10015;52.530;13.390;2023-05-18T02:49:59;11.50;99.90
19728;DHT22;10015;52.530;13.390;2023-05-18T02:52:26;11.50;99.90
19728;DHT22;10015;52.530;13.390;2023-05-18T02:54:53;11.50;99.90
19728;DHT22;10015;52.530;13.390;2023-05-18T02:57:27;11.50;99.90
19728;DHT22;10015;52.530;13.390;2023-05-18T03:00:00;11.60;99.90
19728;DHT22;10015;52.530;13.390;2023-05-18T03:02:27;11.60;99.90
19728;DHT22;10015;52.530;13.390;2023-05-18T03:04:54;11.70;99.90
19728;DHT22;10015;52.530;13.390;2023-05-18T03:07:23;11.60;99.90
19728;DHT22;10015;52.530;13.390;2023-05-18T03:09:49;11.70;99.90
19728;DHT22;10015;52.530;13.390;2023-05-18T03:12:15;11.70;99.90
19728;DHT22;10015;52.530;13.390;2023-05-18T03:14:40;11.80;99.90
19728;DHT22;10015;52.530;13.390;2023-05-18T03:17:06;11.70;99.90
19728;DHT22;10015;52.530;13.390;2023-05-18T03:19:33;11.70;99.90
19728;DHT22;10015;52.530;13.390;2023-05-18T03:22:00;11.70;99.90
19728;DHT22;10015;52.530;13.390;2023-05-18T03:24:26;11.70;99.90
19728;DHT22;10015;52.530;13.390;2023-05-18T03:26:56;11.80;99.90
19728;DHT22;10015;52.530;13.390;2023-05-18T03:29:23;11.80;99.90
19728;DHT22;10015;52.530;13.390;2023-05-18T03:31:51;11.80;99.90
19728;DHT22;10015;52.530;13.390;2023-05-18T03:34:17;11.80;99.90
19728;DHT22;10015;52.530;13.390;2023-05-18T03:36:43;11.80;99.90
19728;DHT22;10015;52.530;13.390;2023-05-18T03:39:12;11.80;99.90
19728;DHT22;10015;52.530;13.390;2023-05-18T03:41:39;11.80;99.90
19728;DHT22;10015;52.530;13.390;2023-05-18T03:44:04;11.80;99.90
19728;DHT22;10015;52.530;13.390;2023-05-18T03:46:30;11.90;99.90
19728;DHT22;10015;52.530;13.390;2023-05-18T03:48:57;11.90;99.90
19728;DHT22;10015;52.530;13.390;2023-05-18T03:51:35;11.90;99.90
19728;DHT22;10015;52.530;13.390;2023-05-18T03:54:01;11.80;99.90
19728;DHT22;10015;52.530;13.390;2023-05-18T03:56:27;11.90;99.90
19728;DHT22;10015;52.530;13.390;2023-05-18T03:58:56;11.90;99.90
19728;DHT22;10015;52.530;13.390;2023-05-18T04:01:23;11.80;99.90
19728;DHT22;10015;52.530;13.390;2023-05-18T04:03:50;11.80;99.90
19728;DHT22;10015;52.530;13.390;2023-05-18T04:06:16;11.80;99.90
19728;DHT22;10015;52.530;13.390;2023-05-18T04:08:42;11.80;99.90
19728;DHT22;10015;52.530;13.390;2023-05-18T04:11:11;11.80;99.90
19728;DHT22;10015;52.530;13.390;2023-05-18T04:13:39;11.90;99.90
19728;DHT22;10015;52.530;13.390;2023-05-18T04:16:06;11.90;99.90
19728;DHT22;10015;52.530;13.390;2023-05-18T04:18:32;11.90;99.90
19728;DHT22;10015;52.530;13.390;2023-05-18T04:21:01;12.00;99.90
19728;DHT22;10015;52.530;13.390;2023-05-18T04:23:27;12.00;99.90
19728;DHT22;10015;52.530;13.390;2023-05-18T04:25:53;12.00;99.90
19728;DHT22;10015;52.530;13.390;2023-05-18T04:28:21;12.00;99.90
19728;DHT22;10015;52.530;13.390;2023-05-18T04:30:47;12.10;99.90
19728;DHT22;10015;52.530;13.390;2023-05-18T04:33:12;12.10;99.90
19728;DHT22;10015;52.530;13.390;2023-05-18T04:35:42;12.10;99.90
19728;DHT22;10015;52.530;13.390;2023-05-18T04:38:09;12.00;99.90
19728;DHT22;10015;52.530;13.390;2023-05-18T04:40:35;11.90;99.90
19728;DHT22;10015;52.530;13.390;2023-05-18T04:43:03;11.70;99.90
19728;DHT22;10015;52.530;13.390;2023-05-18T04:45:31;11.50;99.90
19728;DHT22;10015;52.530;13.390;2023-05-18T04:47:59;11.40;99.90
19728;DHT22;10015;52.530;13.390;2023-05-18T04:50:26;11.50;99.90
19728;DHT22;10015;52.530;13.390;2023-05-18T04:52:52;11.50;99.90
19728;DHT22;10015;52.530;13.390;2023-05-18T04:55:22;11.60;99.90
19728;DHT22;10015;52.530;13.390;2023-05-18T04:57:53;11.70;99.90
19728;DHT22;10015;52.530;13.390;2023-05-18T05:00:22;11.90;99.90
19728;DHT22;10015;52.530;13.390;2023-05-18T05:02:51;12.10;99.90
19728;DHT22;10015;52.530;13.390;2023-05-18T05:05:18;12.30;99.90
19728;DHT22;10015;52.530;13.390;2023-05-18T05:07:44;12.40;99.90
19728;DHT22;10015;52.530;13.390;2023-05-18T05:10:10;12.30;99.90
19728;DHT22;10015;52.530;13.390;2023-05-18T05:12:37;12.40;99.90
19728;DHT22;10015;52.530;13.390;2023-05-18T05:15:04;12.30;99.90
19728;DHT22;10015;52.530;13.390;2023-05-18T05:17:31;12.40;99.90
19728;DHT22;10015;52.530;13.390;2023-05-18T05:19:57;12.60;99.90
19728;DHT22;10015;52.530;13.390;2023-05-18T05:22:23;12.80;99.90
19728;DHT22;10015;52.530;13.390;2023-05-18T05:24:50;13.00;99.90
19728;DHT22;10015;52.530;13.390;2023-05-18T05:27:16;12.90;99.90
19728;DHT22;10015;52.530;13.390;2023-05-18T05:29:45;12.90;99.90
19728;DHT22;10015;52.530;13.390;2023-05-18T05:32:11;12.70;99.90
19728;DHT22;10015;52.530;13.390;2023-05-18T05:34:38;12.90;99.90
19728;DHT22;10015;52.530;13.390;2023-05-18T05:37:05;13.20;99.90
19728;DHT22;10015;52.530;13.390;2023-05-18T05:39:31;13.60;99.90
19728;DHT22;10015;52.530;13.390;2023-05-18T05:41:57;14.00;99.90
19728;DHT22;10015;52.530;13.390;2023-05-18T05:44:23;14.30;99.90
19728;DHT22;10015;52.530;13.390;2023-05-18T05:46:49;14.30;99.90
19728;DHT22;10015;52.530;13.390;2023-05-18T05:49:16;14.50;99.90
19728;DHT22;10015;52.530;13.390;2023-05-18T05:51:42;14.90;99.90
19728;DHT22;10015;52.530;13.390;2023-05-18T05:54:08;15.20;99.90
19728;DHT22;10015;52.530;13.390;2023-05-18T05:56:34;15.40;99.90
19728;DHT22;10015;52.530;13.390;2023-05-18T05:59:00;15.40;99.90
19728;DHT22;10015;52.530;13.390;2023-05-18T06:01:26;15.20;99.90
19728;DHT22;10015;52.530;13.390;2023-05-18T06:03:53;15.10;99.90
19728;DHT22;10015;52.530;13.390;2023-05-18T06:06:19;15.40;99.90
19728;DHT22;10015;52.530;13.390;2023-05-18T06:08:46;15.80;99.90
19728;DHT22;10015;52.530;13.390;2023-05-18T06:11:12;16.10;99.90
19728;DHT22;10015;52.530;13.390;2023-05-18T06:13:39;16.10;99.90
19728;DHT22;10015;52.530;13.390;2023-05-18T06:16:05;15.90;99.90
19728;DHT22;10015;52.530;13.390;2023-05-18T06:18:31;16.10;99.90
19728;DHT22;10015;52.530;13.390;2023-05-18T06:21:00;16.40;99.90
19728;DHT22;10015;52.530;13.390;2023-05-18T06:23:26;16.70;99.90
19728;DHT22;10015;52.530;13.390;2023-05-18T06:26:06;17.00;99.90
19728;DHT22;10015;52.530;13.390;2023-05-18T06:29:10;17.40;99.90
19728;DHT22;10015;52.530;13.390;2023-05-18T06:31:56;17.80;99.90
19728;DHT22;10015;52.530;13.390;2023-05-18T06:34:33;18.10;99.90
19728;DHT22;10015;52.530;13.390;2023-05-18T06:37:00;18.30;99.90
19728;DHT22;10015;52.530;13.390;2023-05-18T06:39:25;18.60;99.90
19728;DHT22;10015;52.530;13.390;2023-05-18T06:41:51;18.60;99.90
19728;DHT22;10015;52.530;13.390;2023-05-18T06:44:23;18.30;99.90
19728;DHT22;10015;52.530;13.390;2023-05-18T06:47:08;18.30;99.90
19728;DHT22;10015;52.530;13.390;2023-05-18T06:49:34;18.20;99.90
19728;DHT22;10015;52.530;13.390;2023-05-18T06:52:00;18.10;99.90
19728;DHT22;10015;52.530;13.390;2023-05-18T06:54:26;17.90;99.90
19728;DHT22;10015;52.530;13.390;2023-05-18T06:56:54;17.90;99.90
19728;DHT22;10015;52.530;13.390;2023-05-18T06:59:20;18.10;99.90
19728;DHT22;10015;52.530;13.390;2023-05-18T07:01:48;18.50;99.90
19728;DHT22;10015;52.530;13.390;2023-05-18T07:04:14;18.70;99.90
19728;DHT22;10015;52.530;13.390;2023-05-18T07:06:41;19.00;99.90
19728;DHT22;10015;52.530;13.390;2023-05-18T07:09:07;19.30;99.90
19728;DHT22;10015;52.530;13.390;2023-05-18T07:11:33;19.60;99.90
19728;DHT22;10015;52.530;13.390;2023-05-18T07:13:59;19.90;99.90
19728;DHT22;10015;52.530;13.390;2023-05-18T07:16:26;19.90;99.90
19728;DHT22;10015;52.530;13.390;2023-05-18T07:18:52;19.90;99.90
19728;DHT22;10015;52.530;13.390;2023-05-18T07:21:18;20.10;99.90
19728;DHT22;10015;52.530;13.390;2023-05-18T07:23:44;20.30;99.90
19728;DHT22;10015;52.530;13.390;2023-05-18T07:26:10;20.30;99.10
19728;DHT22;10015;52.530;13.390;2023-05-18T07:28:37;20.20;98.30
19728;DHT22;10015;52.530;13.390;2023-05-18T07:31:04;19.60;99.10
19728;DHT22;10015;52.530;13.390;2023-05-18T07:33:30;19.60;99.90
19728;DHT22;10015;52.530;13.390;2023-05-18T07:35:56;19.60;98.80
19728;DHT22;10015;52.530;13.390;2023-05-18T07:38:22;19.10;98.50
19728;DHT22;10015;52.530;13.390;2023-05-18T07:40:48;18.90;98.80
19728;DHT22;10015;52.530;13.390;2023-05-18T07:43:14;18.90;99.10
19728;DHT22;10015;52.530;13.390;2023-05-18T07:45:40;18.80;98.80
19728;DHT22;10015;52.530;13.390;2023-05-18T07:48:06;18.80;98.50
19728;DHT22;10015;52.530;13.390;2023-05-18T07:50:32;18.20;98.60
19728;DHT22;10015;52.530;13.390;2023-05-18T07:52:59;17.90;99.00
19728;DHT22;10015;52.530;13.390;2023-05-18T07:55:25;18.00;99.90
19728;DHT22;10015;52.530;13.390;2023-05-18T07:57:51;18.00;99.50
19728;DHT22;10015;52.530;13.390;2023-05-18T08:00:18;17.40;99.60
19728;DHT22;10015;52.530;13.390;2023-05-18T08:02:45;17.40;99.90
19728;DHT22;10015;52.530;13.390;2023-05-18T08:05:11;17.60;99.90
19728;DHT22;10015;52.530;13.390;2023-05-18T08:07:37;17.90;99.90
19728;DHT22;10015;52.530;13.390;2023-05-18T08:10:03;18.00;99.90
19728;DHT22;10015;52.530;13.390;2023-05-18T08:12:29;18.20;99.10
19728;DHT22;10015;52.530;13.390;2023-05-18T08:14:55;17.70;98.70
19728;DHT22;10015;52.530;13.390;2023-05-18T08:17:21;17.70;99.20
19728;DHT22;10015;52.530;13.390;2023-05-18T08:19:47;17.60;97.50
19728;DHT22;10015;52.530;13.390;2023-05-18T08:22:14;17.60;98.10
19728;DHT22;10015;52.530;13.390;2023-05-18T08:24:40;17.50;97.20
19728;DHT22;10015;52.530;13.390;2023-05-18T08:27:06;17.50;97.60
19728;DHT22;10015;52.530;13.390;2023-05-18T08:29:34;17.80;98.50
19728;DHT22;10015;52.530;13.390;2023-05-18T08:32:00;18.10;98.40
19728;DHT22;10015;52.530;13.390;2023-05-18T08:34:26;18.30;96.60
19728;DHT22;10015;52.530;13.390;2023-05-18T08:36:52;18.10;96.60
19728;DHT22;10015;52.530;13.390;2023-05-18T08:39:17;18.10;96.40
19728;DHT22;10015;52.530;13.390;2023-05-18T08:44:20;18.20;97.00
19728;DHT22;10015;52.530;13.390;2023-05-18T08:46:49;18.50;96.80
19728;DHT22;10015;52.530;13.390;2023-05-18T08:49:19;18.70;96.40
19728;DHT22;10015;52.530;13.390;2023-05-18T08:51:47;18.70;96.90
19728;DHT22;10015;52.530;13.390;2023-05-18T08:54:20;18.80;97.90
19728;DHT22;10015;52.530;13.390;2023-05-18T08:56:47;18.90;97.90
19728;DHT22;10015;52.530;13.390;2023-05-18T08:59:15;19.00;97.80
19728;DHT22;10015;52.530;13.390;2023-05-18T09:01:42;19.00;98.00
19728;DHT22;10015;52.530;13.390;2023-05-18T09:04:08;19.00;97.80
19728;DHT22;10015;52.530;13.390;2023-05-18T09:06:35;19.00;98.10
19728;DHT22;10015;52.530;13.390;2023-05-18T09:09:02;19.10;97.30
19728;DHT22;10015;52.530;13.390;2023-05-18T09:11:34;19.10;97.30
19728;DHT22;10015;52.530;13.390;2023-05-18T09:14:00;19.10;96.80
19728;DHT22;10015;52.530;13.390;2023-05-18T09:16:27;19.10;97.00
19728;DHT22;10015;52.530;13.390;2023-05-18T09:18:53;19.10;96.30
19728;DHT22;10015;52.530;13.390;2023-05-18T09:21:19;19.10;96.50
19728;DHT22;10015;52.530;13.390;2023-05-18T09:23:46;19.00;95.90
19728;DHT22;10015;52.530;13.390;2023-05-18T09:26:12;18.90;96.20
19728;DHT22;10015;52.530;13.390;2023-05-18T09:28:39;18.80;96.10
19728;DHT22;10015;52.530;13.390;2023-05-18T09:31:08;18.70;95.50
19728;DHT22;10015;52.530;13.390;2023-05-18T09:33:35;18.60;96.20
19728;DHT22;10015;52.530;13.390;2023-05-18T09:36:06;18.60;95.80
19728;DHT22;10015;52.530;13.390;2023-05-18T09:38:36;18.40;95.80
19728;DHT22;10015;52.530;13.390;2023-05-18T09:41:03;18.00;95.80
19728;DHT22;10015;52.530;13.390;2023-05-18T09:43:34;17.80;96.10
19728;DHT22;10015;52.530;13.390;2023-05-18T09:46:08;17.60;96.30
19728;DHT22;10015;52.530;13.390;2023-05-18T09:48:35;17.40;96.30
19728;DHT22;10015;52.530;13.390;2023-05-18T09:51:05;17.20;96.40
19728;DHT22;10015;52.530;13.390;2023-05-18T09:53:35;17.20;96.90
19728;DHT22;10015;52.530;13.390;2023-05-18T09:56:05;17.10;96.90
19728;DHT22;10015;52.530;13.390;2023-05-18T09:58:34;17.10;96.70
19728;DHT22;10015;52.530;13.390;2023-05-18T10:01:01;17.20;98.20
19728;DHT22;10015;52.530;13.390;2023-05-18T10:03:32;17.70;97.40
19728;DHT22;10015;52.530;13.390;2023-05-18T10:06:06;18.20;96.90
19728;DHT22;10015;52.530;13.390;2023-05-18T10:08:34;18.70;96.40
19728;DHT22;10015;52.530;13.390;2023-05-18T10:11:01;18.80;96.00
19728;DHT22;10015;52.530;13.390;2023-05-18T10:13:28;18.90;95.30
19728;DHT22;10015;52.530;13.390;2023-05-18T10:15:57;19.00;95.50
19728;DHT22;10015;52.530;13.390;2023-05-18T10:18:29;19.00;95.20
19728;DHT22;10015;52.530;13.390;2023-05-18T10:21:00;19.00;95.30
19728;DHT22;10015;52.530;13.390;2023-05-18T10:23:31;19.10;94.90
19728;DHT22;10015;52.530;13.390;2023-05-18T10:25:57;18.80;94.50
19728;DHT22;10015;52.530;13.390;2023-05-18T10:28:37;18.60;94.00
19728;DHT22;10015;52.530;13.390;2023-05-18T10:31:03;18.40;94.40
19728;DHT22;10015;52.530;13.390;2023-05-18T10:33:31;18.40;94.30
19728;DHT22;10015;52.530;13.390;2023-05-18T10:35:58;18.60;94.10
19728;DHT22;10015;52.530;13.390;2023-05-18T10:38:26;18.40;94.50
19728;DHT22;10015;52.530;13.390;2023-05-18T10:40:56;18.30;94.20
19728;DHT22;10015;52.530;13.390;2023-05-18T10:43:23;18.40;93.80
19728;DHT22;10015;52.530;13.390;2023-05-18T10:45:57;18.20;93.70
19728;DHT22;10015;52.530;13.390;2023-05-18T10:48:24;18.40;94.00
19728;DHT22;10015;52.530;13.390;2023-05-18T10:50:52;18.50;93.70
19728;DHT22;10015;52.530;13.390;2023-05-18T10:53:20;18.70;94.50
19728;DHT22;10015;52.530;13.390;2023-05-18T10:55:47;18.80;93.50
19728;DHT22;10015;52.530;13.390;2023-05-18T10:58:23;18.80;93.90
19728;DHT22;10015;52.530;13.390;2023-05-18T11:00:53;18.60;94.70
19728;DHT22;10015;52.530;13.390;2023-05-18T11:03:20;18.60;94.10
19728;DHT22;10015;52.530;13.390;2023-05-18T11:06:04;18.30;93.80
19728;DHT22;10015;52.530;13.390;2023-05-18T11:08:42;18.20;93.80
19728;DHT22;10015;52.530;13.390;2023-05-18T11:11:09;17.80;93.70
19728;DHT22;10015;52.530;13.390;2023-05-18T11:13:36;17.60;94.10
19728;DHT22;10015;52.530;13.390;2023-05-18T11:16:06;17.80;95.60
19728;DHT22;10015;52.530;13.390;2023-05-18T11:18:49;18.00;94.00
19728;DHT22;10015;52.530;13.390;2023-05-18T11:21:28;18.20;94.30
19728;DHT22;10015;52.530;13.390;2023-05-18T11:26:55;18.80;94.60
19728;DHT22;10015;52.530;13.390;2023-05-18T11:31:52;19.00;93.60
19728;DHT22;10015;52.530;13.390;2023-05-18T11:34:44;18.80;94.00
19728;DHT22;10015;52.530;13.390;2023-05-18T11:37:11;18.70;94.00
19728;DHT22;10015;52.530;13.390;2023-05-18T11:39:38;18.50;94.20
19728;DHT22;10015;52.530;13.390;2023-05-18T11:42:11;18.20;94.30
19728;DHT22;10015;52.530;13.390;2023-05-18T11:44:39;18.00;94.30
19728;DHT22;10015;52.530;13.390;2023-05-18T11:47:09;17.90;94.40
19728;DHT22;10015;52.530;13.390;2023-05-18T11:49:44;17.80;94.70
19728;DHT22;10015;52.530;13.390;2023-05-18T11:54:45;18.00;94.10
19728;DHT22;10015;52.530;13.390;2023-05-18T11:57:15;18.10;94.40
19728;DHT22;10015;52.530;13.390;2023-05-18T11:59:43;18.30;94.50
19728;DHT22;10015;52.530;13.390;2023-05-18T12:02:11;18.40;94.10
19728;DHT22;10015;52.530;13.390;2023-05-18T12:04:42;18.40;93.90
19728;DHT22;10015;52.530;13.390;2023-05-18T12:07:09;18.50;93.70
19728;DHT22;10015;52.530;13.390;2023-05-18T12:09:39;18.60;93.90
19728;DHT22;10015;52.530;13.390;2023-05-18T12:12:06;18.80;93.70
19728;DHT22;10015;52.530;13.390;2023-05-18T12:14:34;18.80;93.90
19728;DHT22;10015;52.530;13.390;2023-05-18T12:17:00;18.80;93.90
19728;DHT22;10015;52.530;13.390;2023-05-18T12:19:26;18.80;92.90
19728;DHT22;10015;52.530;13.390;2023-05-18T12:21:53;18.60;92.90
19728;DHT22;10015;52.530;13.390;2023-05-18T12:24:20;18.60;92.80
19728;DHT22;10015;52.530;13.390;2023-05-18T12:26:46;18.60;92.90
19728;DHT22;10015;52.530;13.390;2023-05-18T12:29:13;18.70;92.80
19728;DHT22;10015;52.530;13.390;2023-05-18T12:31:45;18.80;92.70
19728;DHT22;10015;52.530;13.390;2023-05-18T12:34:12;18.60;92.80
19728;DHT22;10015;52.530;13.390;2023-05-18T12:36:51;18.80;92.60
19728;DHT22;10015;52.530;13.390;2023-05-18T12:39:21;18.80;92.50
19728;DHT22;10015;52.530;13.390;2023-05-18T12:41:47;18.90;92.60
19728;DHT22;10015;52.530;13.390;2023-05-18T12:44:13;18.90;92.60
19728;DHT22;10015;52.530;13.390;2023-05-18T12:46:41;18.60;92.80
19728;DHT22;10015;52.530;13.390;2023-05-18T12:49:08;18.60;93.40
19728;DHT22;10015;52.530;13.390;2023-05-18T12:51:36;18.70;93.30
19728;DHT22;10015;52.530;13.390;2023-05-18T12:54:04;18.90;92.90
19728;DHT22;10015;52.530;13.390;2023-05-18T12:59:19;18.50;92.50
19728;DHT22;10015;52.530;13.390;2023-05-18T13:01:45;18.50;92.60
19728;DHT22;10015;52.530;13.390;2023-05-18T13:04:11;18.40;92.60
19728;DHT22;10015;52.530;13.390;2023-05-18T13:06:38;18.50;92.70
19728;DHT22;10015;52.530;13.390;2023-05-18T13:09:07;18.50;92.80
19728;DHT22;10015;52.530;13.390;2023-05-18T13:11:36;18.50;92.70
19728;DHT22;10015;52.530;13.390;2023-05-18T13:14:04;18.40;92.90
19728;DHT22;10015;52.530;13.390;2023-05-18T13:16:32;18.30;93.00
19728;DHT22;10015;52.530;13.390;2023-05-18T13:19:04;18.20;93.30
19728;DHT22;10015;52.530;13.390;2023-05-18T13:21:31;18.10;93.00
19728;DHT22;10015;52.530;13.390;2023-05-18T13:23:59;18.10;92.60
19728;DHT22;10015;52.530;13.390;2023-05-18T13:26:26;18.10;92.50
19728;DHT22;10015;52.530;13.390;2023-05-18T13:28:54;18.20;92.60
19728;DHT22;10015;52.530;13.390;2023-05-18T13:31:21;18.10;92.50
19728;DHT22;10015;52.530;13.390;2023-05-18T13:33:48;18.00;92.80
19728;DHT22;10015;52.530;13.390;2023-05-18T13:36:14;18.00;92.90
19728;DHT22;10015;52.530;13.390;2023-05-18T13:38:41;18.20;93.10
19728;DHT22;10015;52.530;13.390;2023-05-18T13:41:09;18.40;93.00
19728;DHT22;10015;52.530;13.390;2023-05-18T13:43:41;18.70;92.40
19728;DHT22;10015;52.530;13.390;2023-05-18T13:46:07;18.90;92.00
19728;DHT22;10015;52.530;13.390;2023-05-18T13:48:33;19.00;91.60
19728;DHT22;10015;52.530;13.390;2023-05-18T13:50:59;18.80;91.90
19728;DHT22;10015;52.530;13.390;2023-05-18T13:53:26;18.70;91.80
19728;DHT22;10015;52.530;13.390;2023-05-18T13:55:52;18.70;91.80
19728;DHT22;10015;52.530;13.390;2023-05-18T13:58:18;18.50;91.80
19728;DHT22;10015;52.530;13.390;2023-05-18T14:00:44;18.50;91.80
19728;DHT22;10015;52.530;13.390;2023-05-18T14:03:11;18.20;92.30
19728;DHT22;10015;52.530;13.390;2023-05-18T14:05:37;18.10;92.60
19728;DHT22;10015;52.530;13.390;2023-05-18T14:08:03;18.20;92.30
19728;DHT22;10015;52.530;13.390;2023-05-18T14:10:29;18.50;92.40
19728;DHT22;10015;52.530;13.390;2023-05-18T14:12:55;18.80;92.30
19728;DHT22;10015;52.530;13.390;2023-05-18T14:15:21;18.90;92.00
19728;DHT22;10015;52.530;13.390;2023-05-18T14:17:46;18.80;91.40
19728;DHT22;10015;52.530;13.390;2023-05-18T14:20:12;18.60;91.90
19728;DHT22;10015;52.530;13.390;2023-05-18T14:22:38;18.60;92.10
19728;DHT22;10015;52.530;13.390;2023-05-18T14:25:05;18.60;92.10
19728;DHT22;10015;52.530;13.390;2023-05-18T14:27:31;18.50;92.00
19728;DHT22;10015;52.530;13.390;2023-05-18T14:29:56;18.60;92.20
19728;DHT22;10015;52.530;13.390;2023-05-18T14:32:23;18.80;91.40
19728;DHT22;10015;52.530;13.390;2023-05-18T14:34:49;18.80;91.40
19728;DHT22;10015;52.530;13.390;2023-05-18T14:37:20;18.90;91.50
19728;DHT22;10015;52.530;13.390;2023-05-18T14:39:46;19.00;91.40
19728;DHT22;10015;52.530;13.390;2023-05-18T14:42:12;18.90;91.00
19728;DHT22;10015;52.530;13.390;2023-05-18T14:44:38;19.00;91.00
19728;DHT22;10015;52.530;13.390;2023-05-18T14:47:04;19.00;91.20
19728;DHT22;10015;52.530;13.390;2023-05-18T14:49:30;19.00;91.10
19728;DHT22;10015;52.530;13.390;2023-05-18T14:51:56;19.00;91.20
19728;DHT22;10015;52.530;13.390;2023-05-18T14:54:21;19.10;91.20
19728;DHT22;10015;52.530;13.390;2023-05-18T14:56:47;19.10;91.50
19728;DHT22;10015;52.530;13.390;2023-05-18T14:59:13;19.00;91.30
19728;DHT22;10015;52.530;13.390;2023-05-18T15:01:39;18.90;91.60
19728;DHT22;10015;52.530;13.390;2023-05-18T15:04:05;19.00;91.50
19728;DHT22;10015;52.530;13.390;2023-05-18T15:06:30;19.00;91.80
19728;DHT22;10015;52.530;13.390;2023-05-18T15:08:57;19.00;91.60
19728;DHT22;10015;52.530;13.390;2023-05-18T15:11:23;19.00;91.50
19728;DHT22;10015;52.530;13.390;2023-05-18T15:13:49;19.10;91.80
19728;DHT22;10015;52.530;13.390;2023-05-18T15:16:15;18.90;91.50
19728;DHT22;10015;52.530;13.390;2023-05-18T15:18:44;18.80;91.50
19728;DHT22;10015;52.530;13.390;2023-05-18T15:21:10;18.70;91.60
19728;DHT22;10015;52.530;13.390;2023-05-18T15:23:36;18.60;91.90
19728;DHT22;10015;52.530;13.390;2023-05-18T15:26:02;18.50;92.10
19728;DHT22;10015;52.530;13.390;2023-05-18T15:28:28;18.60;92.10
19728;DHT22;10015;52.530;13.390;2023-05-18T15:30:54;18.50;92.10
19728;DHT22;10015;52.530;13.390;2023-05-18T15:33:20;18.50;92.10
19728;DHT22;10015;52.530;13.390;2023-05-18T15:35:46;18.50;92.20
19728;DHT22;10015;52.530;13.390;2023-05-18T15:38:12;18.50;92.10
19728;DHT22;10015;52.530;13.390;2023-05-18T15:40:38;18.50;92.20
19728;DHT22;10015;52.530;13.390;2023-05-18T15:43:04;18.50;92.40
19728;DHT22;10015;52.530;13.390;2023-05-18T15:45:30;18.50;92.40